sensor_id;sensor_type;location;lat;lon;timestamp;temperature;humidity
1307;DHT22;646;48.696;9.114;2023-03-23T00:01:03;12.20;74.90
1307;DHT22;646;48.696;9.114;2023-03-23T00:03:29;12.00;74.80
1307;DHT22;646;48.696;9.114;2023-03-23T00:05:57;12.10;74.00
1307;DHT22;646;48.696;9.114;2023-03-23T00:08:30;12.10;73.80
1307;DHT22;646;48.696;9.114;2023-03-23T00:10:56;11.90;73.60
1307;DHT22;646;48.696;9.114;2023-03-23T00:13:25;11.90;73.60
1307;DHT22;646;48.696;9.114;2023-03-23T00:15:51;12.10;74.80
1307;DHT22;646;48.696;9.114;2023-03-23T00:18:18;11.80;73.90
1307;DHT22;646;48.696;9.114;2023-03-23T00:20:53;12.10;75.40
1307;DHT22;646;48.696;9.114;2023-03-23T00:23:20;12.00;75.50
1307;DHT22;646;48.696;9.114;2023-03-23T00:25:47;12.00;75.50
1307;DHT22;646;48.696;9.114;2023-03-23T00:28:14;12.00;75.50
1307;DHT22;646;48.696;9.114;2023-03-23T00:30:40;11.80;74.10
1307;DHT22;646;48.696;9.114;2023-03-23T00:33:08;11.90;74.60
1307;DHT22;646;48.696;9.114;2023-03-23T00:35:33;11.70;74.70
1307;DHT22;646;48.696;9.114;2023-03-23T00:38:01;11.90;74.30
1307;DHT22;646;48.696;9.114;2023-03-23T00:40:27;11.90;73.80
1307;DHT22;646;48.696;9.114;2023-03-23T00:42:53;11.90;73.60
1307;DHT22;646;48.696;9.114;2023-03-23T00:45:19;11.90;72.60
1307;DHT22;646;48.696;9.114;2023-03-23T00:47:44;11.80;72.90
1307;DHT22;646;48.696;9.114;2023-03-23T00:50:16;12.00;71.70
1307;DHT22;646;48.696;9.114;2023-03-23T00:52:42;11.80;71.10
1307;DHT22;646;48.696;9.114;2023-03-23T00:55:08;11.80;70.70
1307;DHT22;646;48.696;9.114;2023-03-23T00:57:33;12.00;70.50
1307;DHT22;646;48.696;9.114;2023-03-23T00:59:59;12.00;70.20
1307;DHT22;646;48.696;9.114;2023-03-23T01:02:25;11.90;70.10
1307;DHT22;646;48.696;9.114;2023-03-23T01:04:51;12.00;69.80
1307;DHT22;646;48.696;9.114;2023-03-23T01:07:20;12.30;70.90
1307;DHT22;646;48.696;9.114;2023-03-23T01:09:48;12.10;70.50
1307;DHT22;646;48.696;9.114;2023-03-23T01:12:13;12.50;70.90
1307;DHT22;646;48.696;9.114;2023-03-23T01:14:40;12.20;69.50
1307;DHT22;646;48.696;9.114;2023-03-23T01:17:06;11.80;69.70
1307;DHT22;646;48.696;9.114;2023-03-23T01:19:31;12.10;68.70
1307;DHT22;646;48.696;9.114;2023-03-23T01:21:57;12.10;68.80
1307;DHT22;646;48.696;9.114;2023-03-23T01:24:22;12.30;69.20
1307;DHT22;646;48.696;9.114;2023-03-23T01:26:48;12.00;69.00
1307;DHT22;646;48.696;9.114;2023-03-23T01:29:14;12.20;69.40
1307;DHT22;646;48.696;9.114;2023-03-23T01:31:39;12.20;69.40
1307;DHT22;646;48.696;9.114;2023-03-23T01:34:05;11.90;69.20
1307;DHT22;646;48.696;9.114;2023-03-23T01:36:31;12.00;69.20
1307;DHT22;646;48.696;9.114;2023-03-23T01:38:59;12.10;70.00
1307;DHT22;646;48.696;9.114;2023-03-23T01:41:26;12.00;69.40
1307;DHT22;646;48.696;9.114;2023-03-23T01:46:39;11.90;70.10
1307;DHT22;646;48.696;9.114;2023-03-23T01:49:08;12.10;69.20
1307;DHT22;646;48.696;9.114;2023-03-23T01:51:39;11.60;69.30
1307;DHT22;646;48.696;9.114;2023-03-23T01:54:07;12.10;68.90
1307;DHT22;646;48.696;9.114;2023-03-23T01:56:41;12.10;69.80
1307;DHT22;646;48.696;9.114;2023-03-23T01:59:11;12.20;70.00
1307;DHT22;646;48.696;9.114;2023-03-23T02:01:37;12.20;69.00
1307;DHT22;646;48.696;9.114;2023-03-23T02:04:08;12.30;69.20
1307;DHT22;646;48.696;9.114;2023-03-23T02:06:34;12.30;70.10
1307;DHT22;646;48.696;9.114;2023-03-23T02:09:00;12.10;69.80
1307;DHT22;646;48.696;9.114;2023-03-23T02:11:26;12.20;69.70
1307;DHT22;646;48.696;9.114;2023-03-23T02:13:51;12.20;70.10
1307;DHT22;646;48.696;9.114;2023-03-23T02:22:26;12.20;70.40
1307;DHT22;646;48.696;9.114;2023-03-23T02:25:20;12.00;70.40
1307;DHT22;646;48.696;9.114;2023-03-23T02:33:29;12.30;71.50
1307;DHT22;646;48.696;9.114;2023-03-23T02:36:01;12.10;70.30
1307;DHT22;646;48.696;9.114;2023-03-23T02:41:03;12.30;71.50
1307;DHT22;646;48.696;9.114;2023-03-23T02:43:33;12.00;70.50
1307;DHT22;646;48.696;9.114;2023-03-23T02:46:04;12.20;71.30
1307;DHT22;646;48.696;9.114;2023-03-23T02:48:32;12.20;70.20
1307;DHT22;646;48.696;9.114;2023-03-23T02:50:59;12.30;71.20
1307;DHT22;646;48.696;9.114;2023-03-23T02:53:27;12.20;70.60
1307;DHT22;646;48.696;9.114;2023-03-23T02:55:54;12.40;72.10
1307;DHT22;646;48.696;9.114;2023-03-23T02:58:21;12.20;71.20
1307;DHT22;646;48.696;9.114;2023-03-23T03:00:49;12.40;72.10
1307;DHT22;646;48.696;9.114;2023-03-23T03:03:21;12.30;71.50
1307;DHT22;646;48.696;9.114;2023-03-23T03:06:14;12.10;72.40
1307;DHT22;646;48.696;9.114;2023-03-23T03:09:03;12.10;72.00
1307;DHT22;646;48.696;9.114;2023-03-23T03:11:34;12.30;71.30
1307;DHT22;646;48.696;9.114;2023-03-23T03:14:05;12.30;71.10
1307;DHT22;646;48.696;9.114;2023-03-23T03:16:44;12.00;71.60
1307;DHT22;646;48.696;9.114;2023-03-23T03:19:24;12.40;71.80
1307;DHT22;646;48.696;9.114;2023-03-23T03:21:52;12.20;71.30
1307;DHT22;646;48.696;9.114;2023-03-23T03:24:20;12.20;70.90
1307;DHT22;646;48.696;9.114;2023-03-23T03:26:49;12.40;70.10
1307;DHT22;646;48.696;9.114;2023-03-23T03:29:20;12.20;69.90
1307;DHT22;646;48.696;9.114;2023-03-23T03:31:47;12.40;71.00
1307;DHT22;646;48.696;9.114;2023-03-23T03:34:15;12.50;71.10
1307;DHT22;646;48.696;9.114;2023-03-23T03:36:44;12.40;70.40
1307;DHT22;646;48.696;9.114;2023-03-23T03:39:11;12.40;70.40
1307;DHT22;646;48.696;9.114;2023-03-23T03:41:38;12.40;70.70
1307;DHT22;646;48.696;9.114;2023-03-23T03:44:04;12.30;70.30
1307;DHT22;646;48.696;9.114;2023-03-23T03:46:30;12.30;70.70
1307;DHT22;646;48.696;9.114;2023-03-23T03:49:00;12.40;70.40
1307;DHT22;646;48.696;9.114;2023-03-23T03:51:27;12.60;69.80
1307;DHT22;646;48.696;9.114;2023-03-23T03:53:53;12.70;70.70
1307;DHT22;646;48.696;9.114;2023-03-23T03:56:19;12.70;70.50
1307;DHT22;646;48.696;9.114;2023-03-23T03:58:47;12.80;69.50
1307;DHT22;646;48.696;9.114;2023-03-23T04:01:14;12.80;70.40
1307;DHT22;646;48.696;9.114;2023-03-23T04:03:40;13.00;70.50
1307;DHT22;646;48.696;9.114;2023-03-23T04:06:06;13.00;70.60
1307;DHT22;646;48.696;9.114;2023-03-23T04:08:33;13.00;69.90
1307;DHT22;646;48.696;9.114;2023-03-23T04:10:59;12.50;70.20
1307;DHT22;646;48.696;9.114;2023-03-23T04:13:25;12.10;69.80
1307;DHT22;646;48.696;9.114;2023-03-23T04:15:50;12.50;69.60
1307;DHT22;646;48.696;9.114;2023-03-23T04:18:16;12.50;70.00
1307;DHT22;646;48.696;9.114;2023-03-23T04:20:44;12.40;71.30
1307;DHT22;646;48.696;9.114;2023-03-23T04:23:21;11.90;71.10
1307;DHT22;646;48.696;9.114;2023-03-23T04:25:50;12.60;72.10
1307;DHT22;646;48.696;9.114;2023-03-23T04:28:17;12.30;72.10
1307;DHT22;646;48.696;9.114;2023-03-23T04:30:44;12.70;71.60
1307;DHT22;646;48.696;9.114;2023-03-23T04:33:11;12.30;72.50
1307;DHT22;646;48.696;9.114;2023-03-23T04:35:41;12.20;72.70
1307;DHT22;646;48.696;9.114;2023-03-23T04:38:07;12.40;72.60
1307;DHT22;646;48.696;9.114;2023-03-23T04:40:40;12.50;72.90
1307;DHT22;646;48.696;9.114;2023-03-23T04:43:06;12.30;72.40
1307;DHT22;646;48.696;9.114;2023-03-23T04:45:33;12.70;71.80
1307;DHT22;646;48.696;9.114;2023-03-23T04:47:59;12.60;71.50
1307;DHT22;646;48.696;9.114;2023-03-23T04:50:28;12.70;71.30
1307;DHT22;646;48.696;9.114;2023-03-23T04:52:56;12.70;71.40
1307;DHT22;646;48.696;9.114;2023-03-23T04:55:24;12.60;72.00
1307;DHT22;646;48.696;9.114;2023-03-23T04:57:50;12.70;70.90
1307;DHT22;646;48.696;9.114;2023-03-23T05:00:16;12.80;70.80
1307;DHT22;646;48.696;9.114;2023-03-23T05:02:44;12.70;70.80
1307;DHT22;646;48.696;9.114;2023-03-23T05:05:13;12.80;71.70
1307;DHT22;646;48.696;9.114;2023-03-23T05:07:39;13.00;71.50
1307;DHT22;646;48.696;9.114;2023-03-23T05:10:06;13.00;71.70
1307;DHT22;646;48.696;9.114;2023-03-23T05:12:33;12.80;70.40
1307;DHT22;646;48.696;9.114;2023-03-23T05:14:59;13.00;70.80
1307;DHT22;646;48.696;9.114;2023-03-23T05:17:25;12.70;69.90
1307;DHT22;646;48.696;9.114;2023-03-23T05:19:51;12.90;70.20
1307;DHT22;646;48.696;9.114;2023-03-23T05:22:18;13.20;69.70
1307;DHT22;646;48.696;9.114;2023-03-23T05:24:46;13.30;70.20
1307;DHT22;646;48.696;9.114;2023-03-23T05:27:12;13.20;69.90
1307;DHT22;646;48.696;9.114;2023-03-23T05:29:40;13.20;68.10
1307;DHT22;646;48.696;9.114;2023-03-23T05:32:06;12.90;67.80
1307;DHT22;646;48.696;9.114;2023-03-23T05:34:33;13.30;68.80
1307;DHT22;646;48.696;9.114;2023-03-23T05:37:00;13.10;68.60
1307;DHT22;646;48.696;9.114;2023-03-23T05:39:26;13.30;68.00
1307;DHT22;646;48.696;9.114;2023-03-23T05:41:52;13.20;68.80
1307;DHT22;646;48.696;9.114;2023-03-23T05:44:18;13.00;67.60
1307;DHT22;646;48.696;9.114;2023-03-23T05:46:44;13.20;68.70
1307;DHT22;646;48.696;9.114;2023-03-23T05:49:10;13.20;68.60
1307;DHT22;646;48.696;9.114;2023-03-23T05:51:35;13.00;67.20
1307;DHT22;646;48.696;9.114;2023-03-23T05:54:01;13.40;67.40
1307;DHT22;646;48.696;9.114;2023-03-23T05:56:27;13.20;67.00
1307;DHT22;646;48.696;9.114;2023-03-23T05:58:54;13.30;67.10
1307;DHT22;646;48.696;9.114;2023-03-23T06:01:20;13.30;66.30
1307;DHT22;646;48.696;9.114;2023-03-23T06:03:45;13.40;66.30
1307;DHT22;646;48.696;9.114;2023-03-23T06:06:11;13.30;66.00
1307;DHT22;646;48.696;9.114;2023-03-23T06:08:37;13.50;65.70
1307;DHT22;646;48.696;9.114;2023-03-23T06:11:04;13.80;65.90
1307;DHT22;646;48.696;9.114;2023-03-23T06:13:29;13.90;65.40
1307;DHT22;646;48.696;9.114;2023-03-23T06:15:56;13.80;65.30
1307;DHT22;646;48.696;9.114;2023-03-23T06:18:24;13.80;65.60
1307;DHT22;646;48.696;9.114;2023-03-23T06:20:50;13.80;65.20
1307;DHT22;646;48.696;9.114;2023-03-23T06:23:17;14.00;65.40
1307;DHT22;646;48.696;9.114;2023-03-23T06:25:43;13.90;64.60
1307;DHT22;646;48.696;9.114;2023-03-23T06:28:09;13.90;64.40
1307;DHT22;646;48.696;9.114;2023-03-23T06:30:35;14.20;63.10
1307;DHT22;646;48.696;9.114;2023-03-23T06:33:01;14.30;63.60
1307;DHT22;646;48.696;9.114;2023-03-23T06:35:31;14.00;62.90
1307;DHT22;646;48.696;9.114;2023-03-23T06:37:56;14.20;63.60
1307;DHT22;646;48.696;9.114;2023-03-23T06:40:23;14.20;63.40
1307;DHT22;646;48.696;9.114;2023-03-23T06:42:49;14.10;63.40
1307;DHT22;646;48.696;9.114;2023-03-23T06:45:14;13.80;63.30
1307;DHT22;646;48.696;9.114;2023-03-23T06:47:40;14.00;64.50
1307;DHT22;646;48.696;9.114;2023-03-23T06:50:06;14.20;64.10
1307;DHT22;646;48.696;9.114;2023-03-23T06:52:32;14.10;64.30
1307;DHT22;646;48.696;9.114;2023-03-23T06:54:59;14.30;64.10
1307;DHT22;646;48.696;9.114;2023-03-23T06:57:24;14.40;63.80
1307;DHT22;646;48.696;9.114;2023-03-23T06:59:50;14.40;63.50
1307;DHT22;646;48.696;9.114;2023-03-23T07:02:16;14.70;63.20
1307;DHT22;646;48.696;9.114;2023-03-23T07:04:41;14.90;62.70
1307;DHT22;646;48.696;9.114;2023-03-23T07:07:11;15.00;61.80
1307;DHT22;646;48.696;9.114;2023-03-23T07:09:39;14.90;61.40
1307;DHT22;646;48.696;9.114;2023-03-23T07:12:05;15.10;60.80
1307;DHT22;646;48.696;9.114;2023-03-23T07:14:31;15.30;60.20
1307;DHT22;646;48.696;9.114;2023-03-23T07:16:56;15.20;60.30
1307;DHT22;646;48.696;9.114;2023-03-23T07:19:22;14.90;59.50
1307;DHT22;646;48.696;9.114;2023-03-23T07:21:47;14.60;59.30
1307;DHT22;646;48.696;9.114;2023-03-23T07:24:13;15.10;59.90
1307;DHT22;646;48.696;9.114;2023-03-23T07:26:40;15.20;60.00
1307;DHT22;646;48.696;9.114;2023-03-23T07:29:07;15.00;60.80
1307;DHT22;646;48.696;9.114;2023-03-23T07:31:32;15.00;60.10
1307;DHT22;646;48.696;9.114;2023-03-23T07:33:58;14.90;60.40
1307;DHT22;646;48.696;9.114;2023-03-23T07:36:23;14.50;60.10
1307;DHT22;646;48.696;9.114;2023-03-23T07:38:49;14.50;60.40
1307;DHT22;646;48.696;9.114;2023-03-23T07:41:15;15.10;61.50
1307;DHT22;646;48.696;9.114;2023-03-23T07:43:40;14.50;60.80
1307;DHT22;646;48.696;9.114;2023-03-23T07:46:06;14.90;61.10
1307;DHT22;646;48.696;9.114;2023-03-23T07:48:32;15.10;61.00
1307;DHT22;646;48.696;9.114;2023-03-23T07:50:59;15.20;61.10
1307;DHT22;646;48.696;9.114;2023-03-23T07:53:24;15.20;61.40
1307;DHT22;646;48.696;9.114;2023-03-23T07:55:50;15.30;60.80
1307;DHT22;646;48.696;9.114;2023-03-23T07:58:16;15.50;59.90
1307;DHT22;646;48.696;9.114;2023-03-23T08:00:47;15.50;59.90
1307;DHT22;646;48.696;9.114;2023-03-23T08:03:14;16.00;60.40
1307;DHT22;646;48.696;9.114;2023-03-23T08:05:41;16.10;59.30
1307;DHT22;646;48.696;9.114;2023-03-23T08:08:08;16.40;59.10
1307;DHT22;646;48.696;9.114;2023-03-23T08:10:35;15.80;58.10
1307;DHT22;646;48.696;9.114;2023-03-23T08:13:01;16.50;58.40
1307;DHT22;646;48.696;9.114;2023-03-23T08:15:27;16.60;58.40
1307;DHT22;646;48.696;9.114;2023-03-23T08:17:54;16.10;57.50
1307;DHT22;646;48.696;9.114;2023-03-23T08:20:19;16.50;58.60
1307;DHT22;646;48.696;9.114;2023-03-23T08:22:51;16.60;57.90
1307;DHT22;646;48.696;9.114;2023-03-23T08:25:18;16.70;58.20
1307;DHT22;646;48.696;9.114;2023-03-23T08:27:44;17.10;57.90
1307;DHT22;646;48.696;9.114;2023-03-23T08:30:13;17.60;57.20
1307;DHT22;646;48.696;9.114;2023-03-23T08:32:39;18.00;56.70
1307;DHT22;646;48.696;9.114;2023-03-23T08:35:06;18.00;55.90
1307;DHT22;646;48.696;9.114;2023-03-23T08:37:32;18.20;55.50
1307;DHT22;646;48.696;9.114;2023-03-23T08:39:58;18.40;55.60
1307;DHT22;646;48.696;9.114;2023-03-23T08:42:24;18.20;55.50
1307;DHT22;646;48.696;9.114;2023-03-23T08:44:50;18.20;55.60
1307;DHT22;646;48.696;9.114;2023-03-23T08:47:16;17.80;56.00
1307;DHT22;646;48.696;9.114;2023-03-23T08:49:42;17.70;56.30
1307;DHT22;646;48.696;9.114;2023-03-23T08:52:08;17.60;56.50
1307;DHT22;646;48.696;9.114;2023-03-23T08:54:34;17.70;57.10
1307;DHT22;646;48.696;9.114;2023-03-23T08:57:01;17.50;57.60
1307;DHT22;646;48.696;9.114;2023-03-23T08:59:27;17.40;57.80
1307;DHT22;646;48.696;9.114;2023-03-23T09:01:53;17.30;57.80
1307;DHT22;646;48.696;9.114;2023-03-23T09:04:19;17.40;58.90
1307;DHT22;646;48.696;9.114;2023-03-23T09:06:44;17.20;58.30
1307;DHT22;646;48.696;9.114;2023-03-23T09:09:11;17.50;58.60
1307;DHT22;646;48.696;9.114;2023-03-23T09:11:38;17.50;58.50
1307;DHT22;646;48.696;9.114;2023-03-23T09:14:05;17.60;58.70
1307;DHT22;646;48.696;9.114;2023-03-23T09:16:31;17.10;58.30
1307;DHT22;646;48.696;9.114;2023-03-23T09:18:58;17.80;58.70
1307;DHT22;646;48.696;9.114;2023-03-23T09:21:24;17.90;58.00
1307;DHT22;646;48.696;9.114;2023-03-23T09:23:50;18.50;57.60
1307;DHT22;646;48.696;9.114;2023-03-23T09:26:17;18.00;56.30
1307;DHT22;646;48.696;9.114;2023-03-23T09:28:42;18.50;56.20
1307;DHT22;646;48.696;9.114;2023-03-23T09:31:09;18.60;55.70
1307;DHT22;646;48.696;9.114;2023-03-23T09:33:36;18.60;55.60
1307;DHT22;646;48.696;9.114;2023-03-23T09:36:02;18.90;55.50
1307;DHT22;646;48.696;9.114;2023-03-23T09:38:30;19.00;55.10
1307;DHT22;646;48.696;9.114;2023-03-23T09:49:08;18.10;57.10
1307;DHT22;646;48.696;9.114;2023-03-23T09:51:40;17.50;57.40
1307;DHT22;646;48.696;9.114;2023-03-23T09:54:22;17.50;57.50
1307;DHT22;646;48.696;9.114;2023-03-23T09:56:50;17.40;57.90
1307;DHT22;646;48.696;9.114;2023-03-23T10:01:53;17.50;58.60
1307;DHT22;646;48.696;9.114;2023-03-23T10:04:32;17.10;57.90
1307;DHT22;646;48.696;9.114;2023-03-23T10:07:09;17.40;58.60
1307;DHT22;646;48.696;9.114;2023-03-23T10:09:36;17.80;58.20
1307;DHT22;646;48.696;9.114;2023-03-23T10:17:28;19.30;55.70
1307;DHT22;646;48.696;9.114;2023-03-23T10:22:38;19.60;54.50
1307;DHT22;646;48.696;9.114;2023-03-23T10:27:53;19.60;54.10
1307;DHT22;646;48.696;9.114;2023-03-23T10:30:36;19.80;54.50
1307;DHT22;646;48.696;9.114;2023-03-23T10:33:16;19.80;54.50
1307;DHT22;646;48.696;9.114;2023-03-23T10:35:57;19.90;53.50
1307;DHT22;646;48.696;9.114;2023-03-23T10:38:49;20.10;53.60
1307;DHT22;646;48.696;9.114;2023-03-23T10:41:16;19.90;53.50
1307;DHT22;646;48.696;9.114;2023-03-23T10:43:43;20.00;53.30
1307;DHT22;646;48.696;9.114;2023-03-23T10:46:33;20.00;53.10
1307;DHT22;646;48.696;9.114;2023-03-23T10:49:04;20.00;53.10
1307;DHT22;646;48.696;9.114;2023-03-23T10:51:36;20.30;53.00
1307;DHT22;646;48.696;9.114;2023-03-23T10:54:04;20.60;51.70
1307;DHT22;646;48.696;9.114;2023-03-23T10:56:42;21.70;51.90
1307;DHT22;646;48.696;9.114;2023-03-23T10:59:18;22.40;49.60
1307;DHT22;646;48.696;9.114;2023-03-23T11:01:49;22.40;48.20
1307;DHT22;646;48.696;9.114;2023-03-23T11:04:17;21.80;48.20
1307;DHT22;646;48.696;9.114;2023-03-23T11:06:46;21.90;48.60
1307;DHT22;646;48.696;9.114;2023-03-23T11:09:18;22.10;49.30
1307;DHT22;646;48.696;9.114;2023-03-23T11:11:52;21.80;48.70
1307;DHT22;646;48.696;9.114;2023-03-23T11:14:31;21.80;48.90
1307;DHT22;646;48.696;9.114;2023-03-23T11:17:03;21.50;49.30
1307;DHT22;646;48.696;9.114;2023-03-23T11:19:34;21.20;50.00
1307;DHT22;646;48.696;9.114;2023-03-23T11:22:08;20.60;50.00
1307;DHT22;646;48.696;9.114;2023-03-23T11:24:42;20.00;50.60
1307;DHT22;646;48.696;9.114;2023-03-23T11:27:09;20.40;52.10
1307;DHT22;646;48.696;9.114;2023-03-23T11:29:43;19.80;53.10
1307;DHT22;646;48.696;9.114;2023-03-23T11:32:14;19.00;53.50
1307;DHT22;646;48.696;9.114;2023-03-23T11:34:42;19.00;54.90
1307;DHT22;646;48.696;9.114;2023-03-23T11:37:16;19.20;55.60
1307;DHT22;646;48.696;9.114;2023-03-23T11:42:20;19.20;55.20
1307;DHT22;646;48.696;9.114;2023-03-23T11:44:46;19.80;55.20
1307;DHT22;646;48.696;9.114;2023-03-23T11:50:05;20.20;54.20
1307;DHT22;646;48.696;9.114;2023-03-23T11:52:50;20.30;53.40
1307;DHT22;646;48.696;9.114;2023-03-23T11:58:12;20.60;51.80
1307;DHT22;646;48.696;9.114;2023-03-23T12:00:53;20.40;51.70
1307;DHT22;646;48.696;9.114;2023-03-23T12:03:21;20.40;51.30
1307;DHT22;646;48.696;9.114;2023-03-23T12:06:10;20.20;50.90
1307;DHT22;646;48.696;9.114;2023-03-23T12:08:53;20.50;51.70
1307;DHT22;646;48.696;9.114;2023-03-23T12:11:53;20.40;50.70
1307;DHT22;646;48.696;9.114;2023-03-23T12:14:43;20.20;52.60
1307;DHT22;646;48.696;9.114;2023-03-23T12:17:14;20.00;52.20
1307;DHT22;646;48.696;9.114;2023-03-23T12:22:42;19.80;52.60
1307;DHT22;646;48.696;9.114;2023-03-23T12:34:06;20.00;51.90
1307;DHT22;646;48.696;9.114;2023-03-23T12:40:00;20.00;51.60
1307;DHT22;646;48.696;9.114;2023-03-23T12:43:13;20.00;51.40
1307;DHT22;646;48.696;9.114;2023-03-23T12:48:29;20.90;49.40
1307;DHT22;646;48.696;9.114;2023-03-23T12:54:16;21.60;48.30
1307;DHT22;646;48.696;9.114;2023-03-23T12:59:56;21.70;47.70
1307;DHT22;646;48.696;9.114;2023-03-23T13:02:29;21.60;47.80
1307;DHT22;646;48.696;9.114;2023-03-23T13:05:05;21.60;47.80
1307;DHT22;646;48.696;9.114;2023-03-23T13:07:37;21.40;47.40
1307;DHT22;646;48.696;9.114;2023-03-23T13:10:26;21.40;47.70
1307;DHT22;646;48.696;9.114;2023-03-23T13:12:53;21.00;47.50
1307;DHT22;646;48.696;9.114;2023-03-23T13:15:42;21.10;47.90
1307;DHT22;646;48.696;9.114;2023-03-23T13:18:12;20.70;47.20
1307;DHT22;646;48.696;9.114;2023-03-23T13:21:10;21.00;47.80
1307;DHT22;646;48.696;9.114;2023-03-23T13:23:41;20.70;48.60
1307;DHT22;646;48.696;9.114;2023-03-23T13:26:14;20.90;48.80
1307;DHT22;646;48.696;9.114;2023-03-23T13:31:37;20.70;48.50
1307;DHT22;646;48.696;9.114;2023-03-23T13:34:25;21.00;48.50
1307;DHT22;646;48.696;9.114;2023-03-23T13:36:57;20.70;48.30
1307;DHT22;646;48.696;9.114;2023-03-23T13:39:27;20.90;48.70
1307;DHT22;646;48.696;9.114;2023-03-23T13:45:05;20.60;48.80
1307;DHT22;646;48.696;9.114;2023-03-23T13:47:39;20.70;48.70
1307;DHT22;646;48.696;9.114;2023-03-23T14:08:02;20.60;47.90
1307;DHT22;646;48.696;9.114;2023-03-23T14:13:03;20.30;48.00
1307;DHT22;646;48.696;9.114;2023-03-23T14:15:36;20.20;47.80
1307;DHT22;646;48.696;9.114;2023-03-23T14:18:04;20.40;48.60
1307;DHT22;646;48.696;9.114;2023-03-23T14:20:32;19.80;48.40
1307;DHT22;646;48.696;9.114;2023-03-23T14:22:59;19.90;48.00
1307;DHT22;646;48.696;9.114;2023-03-23T14:25:27;19.90;48.80
1307;DHT22;646;48.696;9.114;2023-03-23T14:27:54;19.80;48.10
1307;DHT22;646;48.696;9.114;2023-03-23T14:30:22;19.50;48.70
1307;DHT22;646;48.696;9.114;2023-03-23T14:32:48;19.10;49.10
1307;DHT22;646;48.696;9.114;2023-03-23T14:35:24;19.30;49.10
1307;DHT22;646;48.696;9.114;2023-03-23T14:37:52;19.00;49.50
1307;DHT22;646;48.696;9.114;2023-03-23T14:40:18;19.10;49.50
1307;DHT22;646;48.696;9.114;2023-03-23T14:42:44;18.90;49.50
1307;DHT22;646;48.696;9.114;2023-03-23T14:45:15;19.00;50.20
1307;DHT22;646;48.696;9.114;2023-03-23T14:47:45;18.80;50.20
1307;DHT22;646;48.696;9.114;2023-03-23T14:50:26;18.60;50.80
1307;DHT22;646;48.696;9.114;2023-03-23T14:52:52;18.90;50.60
1307;DHT22;646;48.696;9.114;2023-03-23T14:55:22;18.90;50.80
1307;DHT22;646;48.696;9.114;2023-03-23T14:57:50;19.00;50.50
1307;DHT22;646;48.696;9.114;2023-03-23T15:02:49;18.80;49.80
1307;DHT22;646;48.696;9.114;2023-03-23T15:05:21;18.70;49.60
1307;DHT22;646;48.696;9.114;2023-03-23T15:07:50;18.70;49.90
1307;DHT22;646;48.696;9.114;2023-03-23T15:10:19;18.40;49.90
1307;DHT22;646;48.696;9.114;2023-03-23T15:12:46;18.90;49.90
1307;DHT22;646;48.696;9.114;2023-03-23T15:17:51;18.60;50.00
1307;DHT22;646;48.696;9.114;2023-03-23T15:20:29;18.90;49.60
1307;DHT22;646;48.696;9.114;2023-03-23T15:22:57;18.70;49.10
1307;DHT22;646;48.696;9.114;2023-03-23T15:25:31;18.50;49.30
1307;DHT22;646;48.696;9.114;2023-03-23T15:28:07;18.40;49.90
1307;DHT22;646;48.696;9.114;2023-03-23T15:30:36;18.30;49.30
1307;DHT22;646;48.696;9.114;2023-03-23T15:33:06;18.60;50.30
1307;DHT22;646;48.696;9.114;2023-03-23T15:35:37;18.30;49.90
1307;DHT22;646;48.696;9.114;2023-03-23T15:38:06;18.20;50.40
1307;DHT22;646;48.696;9.114;2023-03-23T15:40:35;18.10;50.80
1307;DHT22;646;48.696;9.114;2023-03-23T15:43:21;17.50;50.90
1307;DHT22;646;48.696;9.114;2023-03-23T15:46:03;17.90;51.30
1307;DHT22;646;48.696;9.114;2023-03-23T15:48:32;17.90;51.80
1307;DHT22;646;48.696;9.114;2023-03-23T15:50:58;17.60;51.80
1307;DHT22;646;48.696;9.114;2023-03-23T15:53:37;17.60;52.00
1307;DHT22;646;48.696;9.114;2023-03-23T15:56:07;17.70;52.40
1307;DHT22;646;48.696;9.114;2023-03-23T15:58:34;17.40;52.30
1307;DHT22;646;48.696;9.114;2023-03-23T16:01:03;17.60;52.30
1307;DHT22;646;48.696;9.114;2023-03-23T16:03:40;17.50;52.00
1307;DHT22;646;48.696;9.114;2023-03-23T16:06:10;17.20;52.40
1307;DHT22;646;48.696;9.114;2023-03-23T16:08:37;17.40;52.50
1307;DHT22;646;48.696;9.114;2023-03-23T16:11:13;17.40;52.70
1307;DHT22;646;48.696;9.114;2023-03-23T16:13:39;17.20;52.90
1307;DHT22;646;48.696;9.114;2023-03-23T16:16:06;17.10;52.90
1307;DHT22;646;48.696;9.114;2023-03-23T16:18:34;17.00;53.30
1307;DHT22;646;48.696;9.114;2023-03-23T16:21:00;17.20;53.10
1307;DHT22;646;48.696;9.114;2023-03-23T16:23:26;16.70;53.50
1307;DHT22;646;48.696;9.114;2023-03-23T16:25:51;16.90;53.60
1307;DHT22;646;48.696;9.114;2023-03-23T16:28:17;16.80;53.90
1307;DHT22;646;48.696;9.114;2023-03-23T16:30:45;17.00;54.10
1307;DHT22;646;48.696;9.114;2023-03-23T16:33:11;16.90;54.30
1307;DHT22;646;48.696;9.114;2023-03-23T16:35:36;16.60;54.20
1307;DHT22;646;48.696;9.114;2023-03-23T16:38:02;16.40;54.60
1307;DHT22;646;48.696;9.114;2023-03-23T16:40:28;16.20;54.90
1307;DHT22;646;48.696;9.114;2023-03-23T16:42:54;16.30;55.10
1307;DHT22;646;48.696;9.114;2023-03-23T16:45:20;16.60;55.30
1307;DHT22;646;48.696;9.114;2023-03-23T16:47:46;16.50;55.80
1307;DHT22;646;48.696;9.114;2023-03-23T16:50:15;15.90;55.30
1307;DHT22;646;48.696;9.114;2023-03-23T16:52:42;16.50;55.80
1307;DHT22;646;48.696;9.114;2023-03-23T16:55:09;16.10;56.40
1307;DHT22;646;48.696;9.114;2023-03-23T16:57:35;16.40;56.40
1307;DHT22;646;48.696;9.114;2023-03-23T17:00:05;16.20;57.00
1307;DHT22;646;48.696;9.114;2023-03-23T17:02:31;16.30;56.70
1307;DHT22;646;48.696;9.114;2023-03-23T17:04:56;16.00;56.40
1307;DHT22;646;48.696;9.114;2023-03-23T17:07:22;16.10;57.00
1307;DHT22;646;48.696;9.114;2023-03-23T17:09:48;15.80;56.60
1307;DHT22;646;48.696;9.114;2023-03-23T17:12:14;15.50;56.70
1307;DHT22;646;48.696;9.114;2023-03-23T17:14:39;15.80;57.10
1307;DHT22;646;48.696;9.114;2023-03-23T17:17:05;15.90;57.40
1307;DHT22;646;48.696;9.114;2023-03-23T17:19:30;16.10;57.80
1307;DHT22;646;48.696;9.114;2023-03-23T17:21:56;15.80;57.70
1307;DHT22;646;48.696;9.114;2023-03-23T17:24:21;15.80;58.10
1307;DHT22;646;48.696;9.114;2023-03-23T17:26:47;15.90;58.50
1307;DHT22;646;48.696;9.114;2023-03-23T17:29:12;15.80;58.60
1307;DHT22;646;48.696;9.114;2023-03-23T17:31:38;15.60;58.90
1307;DHT22;646;48.696;9.114;2023-03-23T17:34:05;15.50;59.00
1307;DHT22;646;48.696;9.114;2023-03-23T17:36:31;15.30;59.00
1307;DHT22;646;48.696;9.114;2023-03-23T17:38:56;15.60;59.40
1307;DHT22;646;48.696;9.114;2023-03-23T17:41:22;15.40;59.40
1307;DHT22;646;48.696;9.114;2023-03-23T17:43:47;15.50;59.80
1307;DHT22;646;48.696;9.114;2023-03-23T17:46:13;15.20;59.70
1307;DHT22;646;48.696;9.114;2023-03-23T17:48:38;15.30;60.20
1307;DHT22;646;48.696;9.114;2023-03-23T17:51:05;15.20;60.40
1307;DHT22;646;48.696;9.114;2023-03-23T17:53:31;15.10;60.40
1307;DHT22;646;48.696;9.114;2023-03-23T17:55:58;15.10;61.10
1307;DHT22;646;48.696;9.114;2023-03-23T17:58:24;15.10;61.00
1307;DHT22;646;48.696;9.114;2023-03-23T18:00:51;15.10;61.60
1307;DHT22;646;48.696;9.114;2023-03-23T18:03:17;15.10;61.30
1307;DHT22;646;48.696;9.114;2023-03-23T18:05:43;15.10;62.00
1307;DHT22;646;48.696;9.114;2023-03-23T18:08:08;15.00;62.10
1307;DHT22;646;48.696;9.114;2023-03-23T18:10:35;15.10;62.00